Time;durP1;ratioP1;P1;durP2;ratioP2;P2;SDS_P1;SDS_P2;PMS_P1;PMS_P2;Temp;Humidity;BMP_temperature;BMP_pressure;BME280_temperature;BME280_humidity;BME280_pressure;Samples;Min_cycle;Max_cycle;Signal;HPM_P1;HPM_P2
2022/12/03 00:00:32;;;;;;;43.10;12.90;;;;;;;0.83;91.21;102023.38;5051377;28;20048;-67
2022/12/03 00:02:58;;;;;;;49.33;15.60;;;;;;;0.72;91.22;102020.72;5055698;28;20458;-68
2022/12/03 00:05:26;;;;;;;44.22;15.43;;;;;;;1.02;90.63;102014.94;5051572;28;20408;-67
2022/12/03 00:07:53;;;;;;;40.00;12.20;;;;;;;1.31;88.66;102022.88;5052050;28;20071;-68
2022/12/03 00:10:19;;;;;;;49.17;16.73;;;;;;;1.32;88.39;102016.88;5041334;28;20056;-67
2022/12/03 00:12:46;;;;;;;39.90;14.65;;;;;;;1.31;87.01;102023.75;5062718;28;20512;-67
2022/12/03 00:15:12;;;;;;;38.33;12.80;;;;;;;0.90;88.04;102028.63;5054464;28;20040;-67
2022/12/03 00:17:39;;;;;;;45.28;12.57;;;;;;;1.35;86.91;102024.63;5041306;28;20049;-68
2022/12/03 00:20:07;;;;;;;34.45;13.35;;;;;;;1.64;85.71;102023.09;5051204;28;20053;-67
2022/12/03 00:22:35;;;;;;;42.80;12.10;;;;;;;1.47;85.00;102019.56;5051659;28;20051;-67
2022/12/03 00:25:02;;;;;;;35.38;12.07;;;;;;;1.00;85.98;102026.97;5041515;28;20041;-67
2022/12/03 00:27:28;;;;;;;28.90;12.25;;;;;;;1.11;86.79;102027.06;5051060;28;20047;-66
2022/12/03 00:29:54;;;;;;;21.13;8.18;;;;;;;1.01;85.74;102025.25;5050718;28;20456;-66
2022/12/03 00:32:21;;;;;;;28.45;11.60;;;;;;;0.96;85.98;102028.66;5041375;28;20400;-66
2022/12/03 00:34:47;;;;;;;27.35;10.45;;;;;;;0.75;86.67;102027.63;5051017;28;20045;-68
2022/12/03 00:37:14;;;;;;;27.80;9.68;;;;;;;0.97;86.66;102025.22;5051509;28;20485;-67
2022/12/03 00:39:42;;;;;;;28.52;10.98;;;;;;;0.88;87.05;102022.59;5048800;28;20211;-67
2022/12/03 00:42:08;;;;;;;23.70;10.93;;;;;;;1.16;85.56;102028.81;5056717;28;20048;-68
2022/12/03 00:44:34;;;;;;;32.58;11.23;;;;;;;1.03;86.15;102029.59;5050994;28;20720;-68
2022/12/03 00:47:01;;;;;;;34.22;12.10;;;;;;;1.41;84.60;102030.72;5040548;28;20047;-67
2022/12/03 00:49:27;;;;;;;26.10;10.90;;;;;;;1.73;83.02;102030.91;5050862;28;20408;-67
2022/12/03 00:51:54;;;;;;;33.03;12.18;;;;;;;1.68;83.09;102030.00;5050696;28;20476;-68
2022/12/03 00:54:20;;;;;;;24.30;12.02;;;;;;;1.70;82.80;102028.28;5038924;28;20044;-68
2022/12/03 00:56:48;;;;;;;27.48;11.65;;;;;;;1.59;82.64;102029.94;5050918;28;20255;-67
2022/12/03 00:59:14;;;;;;;23.75;10.95;;;;;;;1.20;83.41;102030.56;5079248;28;20035;-67
2022/12/03 01:01:41;;;;;;;28.85;12.52;;;;;;;1.37;84.12;102028.09;5042649;28;20063;-67
2022/12/03 01:04:07;;;;;;;28.45;10.48;;;;;;;1.25;84.24;102039.22;5053755;28;20189;-67
2022/12/03 01:06:34;;;;;;;23.60;10.45;;;;;;;1.37;83.24;102028.09;5061963;28;20049;-67
2022/12/03 01:09:00;;;;;;;28.20;10.27;;;;;;;1.53;82.73;102034.22;5039839;28;20045;-67
2022/12/03 01:11:40;;;;;;;24.83;10.52;;;;;;;1.47;82.74;102040.22;5050491;28;20436;-67
2022/12/03 01:14:10;;;;;;;21.63;9.10;;;;;;;1.69;81.46;102030.88;5049882;28;20108;-66
2022/12/03 01:16:37;;;;;;;25.20;10.65;;;;;;;1.29;82.42;102033.25;5048398;28;20106;-66
2022/12/03 01:19:05;;;;;;;24.23;10.18;;;;;;;1.43;82.07;102031.59;5047899;28;20408;-66
2022/12/03 01:21:32;;;;;;;15.50;7.65;;;;;;;1.48;82.39;102033.34;5046553;28;20075;-66
2022/12/03 01:23:58;;;;;;;22.45;9.50;;;;;;;1.38;83.38;102035.84;5047098;28;20163;-68
2022/12/03 01:26:25;;;;;;;28.45;10.23;;;;;;;1.39;82.54;102028.97;5044979;28;20063;-67
2022/12/03 01:28:52;;;;;;;29.20;10.82;;;;;;;1.25;83.72;102030.63;5048091;28;20048;-67
2022/12/03 01:34:05;;;;;;;23.75;9.65;;;;;;;1.69;81.25;102015.38;5048797;28;20522;-67
2022/12/03 01:36:33;;;;;;;29.98;10.85;;;;;;;1.48;81.84;102020.44;5039111;28;20048;-66
2022/12/03 01:38:59;;;;;;;24.08;9.57;;;;;;;1.26;83.00;102020.25;5049144;28;20071;-66
2022/12/03 01:41:26;;;;;;;29.98;11.82;;;;;;;1.45;82.72;102023.84;5049262;28;20063;-67
2022/12/03 01:43:53;;;;;;;28.20;12.07;;;;;;;1.87;81.31;102016.31;5038592;28;20041;-67
2022/12/03 01:46:23;;;;;;;27.50;10.45;;;;;;;1.64;80.94;102024.81;5048493;28;20048;-66
2022/12/03 01:48:53;;;;;;;25.33;10.02;;;;;;;1.82;80.53;102023.19;5047867;28;20048;-66
2022/12/03 01:51:19;;;;;;;23.95;9.73;;;;;;;1.78;80.58;102024.00;5049937;28;20408;-66
2022/12/03 01:53:46;;;;;;;29.63;10.38;;;;;;;1.35;82.21;102029.81;5047555;28;20541;-66
2022/12/03 01:56:14;;;;;;;27.52;10.98;;;;;;;1.48;82.34;102021.25;5036727;28;20416;-66
2022/12/03 01:58:42;;;;;;;27.38;11.40;;;;;;;1.55;81.50;102025.63;5049913;28;20064;-66
2022/12/03 02:01:12;;;;;;;33.75;11.98;;;;;;;1.59;81.57;102024.78;5049250;28;20404;-66
2022/12/03 02:03:41;;;;;;;15.18;7.68;;;;;;;1.59;81.90;102026.53;5039792;28;20048;-66
2022/12/03 02:06:14;;;;;;;24.48;10.15;;;;;;;1.39;82.29;102018.63;5050200;28;20071;-66
2022/12/03 02:08:41;;;;;;;23.40;10.30;;;;;;;1.42;81.91;102021.25;5049476;28;20035;-66
2022/12/03 02:11:12;;;;;;;25.77;9.82;;;;;;;1.43;82.08;102013.50;5039698;28;20044;-66
2022/12/03 02:13:38;;;;;;;27.23;10.15;;;;;;;1.52;81.26;102027.31;5048691;28;20044;-66
2022/12/03 02:16:05;;;;;;;24.13;9.15;;;;;;;1.50;80.79;102024.75;5049471;28;20064;-66
2022/12/03 02:18:32;;;;;;;30.02;11.00;;;;;;;1.46;81.71;102018.69;5038976;28;20055;-67
2022/12/03 02:21:07;;;;;;;24.10;10.65;;;;;;;1.42;81.79;102016.94;5048858;28;20470;-66
2022/12/03 02:23:39;;;;;;;27.65;11.38;;;;;;;1.53;81.72;102016.13;5039201;28;20048;-66
2022/12/03 02:26:07;;;;;;;24.58;10.45;;;;;;;1.61;81.68;102015.31;5060205;28;20044;-66
2022/12/03 02:28:34;;;;;;;18.30;8.38;;;;;;;1.33;81.96;102018.63;5052114;28;20450;-67
2022/12/03 02:31:00;;;;;;;23.98;9.50;;;;;;;0.35;86.07;102019.50;5039261;28;20040;-66
2022/12/03 02:33:27;;;;;;;30.20;11.30;;;;;;;0.79;85.67;102017.34;5048728;28;20041;-66
2022/12/03 02:35:53;;;;;;;24.88;10.70;;;;;;;0.84;85.22;102018.25;5049160;28;20047;-66
2022/12/03 02:38:23;;;;;;;30.33;10.70;;;;;;;1.11;84.05;102020.16;5038613;28;20052;-66
2022/12/03 02:40:53;;;;;;;30.83;11.23;;;;;;;1.43;81.91;102017.81;5047769;28;20059;-67
2022/12/03 02:43:21;;;;;;;26.65;10.98;;;;;;;1.12;82.29;102021.03;5049261;28;20048;-66
2022/12/03 02:45:52;;;;;;;25.50;11.25;;;;;;;1.35;81.98;102011.72;5038546;28;20555;-67
2022/12/03 02:48:22;;;;;;;27.08;10.93;;;;;;;1.58;81.08;102004.97;5048686;28;20056;-66
2022/12/03 02:50:52;;;;;;;25.90;9.93;;;;;;;1.37;81.46;102017.75;5050169;28;20542;-66
2022/12/03 02:53:21;;;;;;;20.00;8.65;;;;;;;1.17;81.98;102016.78;5054408;28;20044;-66
2022/12/03 02:55:50;;;;;;;26.45;9.82;;;;;;;1.50;81.03;102013.53;5046880;28;20045;-66
2022/12/03 02:58:17;;;;;;;26.10;10.88;;;;;;;1.83;80.09;102018.88;5037260;28;20654;-66
2022/12/03 03:00:46;;;;;;;26.45;11.05;;;;;;;1.62;79.92;102019.66;5051621;28;20048;-66
2022/12/03 03:03:13;;;;;;;28.35;10.80;;;;;;;1.50;80.48;102021.28;5059020;28;20500;-66
2022/12/03 03:05:41;;;;;;;21.42;9.13;;;;;;;1.61;80.47;102022.22;5038435;28;20045;-66
2022/12/03 03:08:09;;;;;;;25.95;10.65;;;;;;;1.41;81.13;102015.19;5047836;28;20064;-66
2022/12/03 03:10:37;;;;;;;36.08;12.48;;;;;;;1.41;80.82;102024.66;5047603;28;20059;-66
2022/12/03 03:13:08;;;;;;;27.17;11.20;;;;;;;1.45;80.44;102022.13;5039445;28;20462;-66
2022/12/03 03:15:35;;;;;;;29.20;10.98;;;;;;;1.65;80.02;102023.97;5047137;28;20041;-66
2022/12/03 03:18:03;;;;;;;26.10;9.85;;;;;;;1.91;79.51;102023.22;5048857;28;20484;-66
2022/12/03 03:20:30;;;;;;;27.67;12.10;;;;;;;1.64;79.71;102022.22;5039051;28;20044;-67
2022/12/03 03:23:05;;;;;;;30.23;11.93;;;;;;;1.59;79.92;102017.03;5048372;28;20054;-66
2022/12/03 03:25:32;;;;;;;32.72;12.63;;;;;;;1.74;79.40;102017.09;5038315;28;20052;-67
2022/12/03 03:27:58;;;;;;;32.47;12.43;;;;;;;1.59;79.11;102018.75;5048403;28;20056;-66
2022/12/03 03:30:25;;;;;;;30.05;11.20;;;;;;;1.54;79.59;102016.16;5047791;28;20044;-66
2022/12/03 03:32:51;;;;;;;27.92;11.43;;;;;;;1.81;78.99;102002.50;5038584;28;20059;-66
2022/12/03 03:35:19;;;;;;;29.83;10.93;;;;;;;1.77;79.10;102011.97;5048826;28;20051;-66
2022/12/03 03:37:46;;;;;;;30.05;10.65;;;;;;;1.88;78.60;102001.66;5048606;28;20045;-66
2022/12/03 03:40:12;;;;;;;30.80;12.52;;;;;;;1.91;78.30;101999.94;5038266;28;20044;-66
2022/12/03 03:42:39;;;;;;;28.20;12.07;;;;;;;1.95;78.15;101988.75;5054758;28;20047;-66
2022/12/03 03:45:07;;;;;;;29.42;13.32;;;;;;;1.64;78.22;101997.22;5072836;28;20047;-66
2022/12/03 03:47:34;;;;;;;28.20;11.90;;;;;;;1.67;78.50;101997.25;5038530;28;20059;-65
2022/12/03 03:50:01;;;;;;;30.58;12.05;;;;;;;1.43;79.64;101998.00;5048636;28;20051;-66
2022/12/03 03:52:29;;;;;;;26.17;11.05;;;;;;;1.09;81.45;102000.34;5076319;28;20046;-65
2022/12/03 03:54:56;;;;;;;30.67;12.60;;;;;;;1.07;81.63;102002.06;5041236;28;20059;-65
2022/12/03 03:57:22;;;;;;;31.00;12.77;;;;;;;1.45;80.49;102003.16;5048312;28;20045;-66
2022/12/03 03:59:49;;;;;;;30.67;12.88;;;;;;;1.65;79.96;101998.09;5048178;28;20045;-66
2022/12/03 04:02:19;;;;;;;34.95;13.65;;;;;;;1.21;81.07;102001.31;5022442;28;20045;-66
2022/12/03 04:04:46;;;;;;;32.50;12.50;;;;;;;1.34;80.67;101994.47;5048883;28;20041;-65
2022/12/03 04:07:12;;;;;;;33.13;12.27;;;;;;;0.67;82.83;101987.94;5077304;28;20039;-66
2022/12/03 04:09:40;;;;;;;30.50;13.18;;;;;;;0.80;83.45;101988.09;5040654;28;20048;-65
2022/12/03 04:14:51;;;;;;;35.33;13.88;;;;;;;1.16;82.43;101991.78;5038072;28;20055;-66
2022/12/03 04:17:17;;;;;;;24.08;9.43;;;;;;;0.85;83.06;101985.56;5048799;28;20044;-65
2022/12/03 04:19:44;;;;;;;40.85;14.05;;;;;;;1.11;82.62;101993.50;5051234;28;20045;-66
2022/12/03 04:28:47;;;;;;;37.65;14.45;;;;;;;1.06;82.88;101990.00;5051409;28;20162;-66
2022/12/03 04:30:41;;;;;;;40.85;15.13;;;;;;;1.13;81.74;101978.84;5015373;28;20559;-66
2022/12/03 04:35:51;;;;;;;36.25;12.32;;;;;;;1.10;81.58;101981.41;5022710;28;20511;-66
2022/12/03 04:38:33;;;;;;;34.42;12.57;;;;;;;1.10;81.98;101987.47;5028084;28;20062;-66
2022/12/03 04:41:02;;;;;;;39.38;14.77;;;;;;;1.41;81.36;101985.91;5051529;28;20041;-66
2022/12/03 04:43:30;;;;;;;43.25;15.82;;;;;;;1.68;80.28;101980.88;5045326;28;20695;-66
2022/12/03 04:45:56;;;;;;;40.50;14.27;;;;;;;1.63;80.20;101974.81;5050259;28;20048;-67
2022/12/03 04:48:22;;;;;;;38.45;15.15;;;;;;;1.82;79.51;101968.88;5051547;28;20051;-66
2022/12/03 04:50:49;;;;;;;46.47;15.10;;;;;;;1.71;79.39;101982.59;5041969;28;20448;-66
2022/12/03 04:53:15;;;;;;;35.55;14.60;;;;;;;1.56;80.65;101975.66;5051069;28;20037;-65
2022/12/03 04:55:42;;;;;;;41.00;16.40;;;;;;;1.48;80.71;101979.91;5052158;28;20052;-65
2022/12/03 04:58:10;;;;;;;39.42;17.05;;;;;;;1.70;79.54;101981.75;5041388;28;20508;-65
2022/12/03 05:00:36;;;;;;;48.05;17.13;;;;;;;1.82;79.19;101988.69;5050758;28;20047;-65
2022/12/03 05:03:03;;;;;;;40.30;16.77;;;;;;;2.03;78.52;101974.97;5051608;28;20055;-66
2022/12/03 05:05:29;;;;;;;44.30;16.33;;;;;;;1.89;78.17;101974.91;5041958;28;20040;-66
2022/12/03 05:07:56;;;;;;;46.53;17.10;;;;;;;1.83;78.72;101973.19;5051619;28;20052;-66
2022/12/03 05:10:22;;;;;;;48.90;18.70;;;;;;;1.99;78.26;101970.66;5050453;28;20044;-66
2022/12/03 05:12:49;;;;;;;51.17;18.88;;;;;;;1.99;78.35;101974.13;5041318;28;20060;-66
2022/12/03 05:15:16;;;;;;;50.30;18.58;;;;;;;1.96;78.16;101964.59;5050904;28;20048;-66
2022/12/03 05:17:43;;;;;;;45.08;18.42;;;;;;;1.68;78.49;101975.72;5051432;28;20060;-66
2022/12/03 05:22:54;;;;;;;43.50;18.17;;;;;;;1.50;79.91;101967.00;5051128;28;20110;-66
2022/12/03 05:25:21;;;;;;;50.08;18.27;;;;;;;1.66;79.64;101966.22;5047318;28;20047;-66
2022/12/03 05:27:47;;;;;;;52.60;20.00;;;;;;;1.58;79.70;101966.19;5053673;28;20052;-66
2022/12/03 05:30:14;;;;;;;52.03;18.73;;;;;;;1.40;80.46;101971.28;5052504;28;20040;-66
2022/12/03 05:32:42;;;;;;;48.45;18.30;;;;;;;1.32;80.65;101966.06;5055141;28;20042;-66
2022/12/03 05:35:09;;;;;;;52.67;19.92;;;;;;;1.43;80.09;101969.56;5064294;28;20063;-66
2022/12/03 05:37:36;;;;;;;51.50;19.50;;;;;;;1.26;80.74;101970.31;5079796;28;20048;-66
2022/12/03 05:40:03;;;;;;;51.83;19.45;;;;;;;1.21;80.07;101975.47;5055783;28;20056;-66
2022/12/03 05:45:14;;;;;;;45.60;18.20;;;;;;;1.16;81.95;101971.13;5048980;28;20183;-66
2022/12/03 05:47:41;;;;;;;44.55;17.98;;;;;;;1.31;81.01;101971.22;5062968;28;20048;-66
2022/12/03 05:50:08;;;;;;;49.22;18.77;;;;;;;1.57;79.97;101961.00;5047557;28;20544;-66
2022/12/03 05:52:35;;;;;;;48.88;18.50;;;;;;;1.42;80.92;101972.13;5033055;28;20041;-66
2022/12/03 05:55:01;;;;;;;46.35;18.95;;;;;;;1.70;79.60;101968.81;5047941;28;20040;-66
2022/12/03 05:57:28;;;;;;;50.13;17.60;;;;;;;1.77;78.45;101962.84;5050379;28;20048;-66
2022/12/03 05:59:54;;;;;;;49.75;19.55;;;;;;;1.65;78.77;101955.03;5053121;28;20051;-66
2022/12/03 06:02:20;;;;;;;34.30;15.43;;;;;;;1.27;79.30;101961.72;5063590;28;20044;-66
2022/12/03 06:04:48;;;;;;;54.92;20.10;;;;;;;1.38;79.84;101962.63;5094385;27;20051;-66
2022/12/03 06:07:15;;;;;;;55.40;19.02;;;;;;;1.46;79.64;101955.78;5044336;28;20112;-66
2022/12/03 06:09:41;;;;;;;51.53;19.27;;;;;;;1.44;80.37;101957.53;5043619;28;20045;-66
2022/12/03 06:12:08;;;;;;;50.13;18.77;;;;;;;1.53;79.75;101957.53;5062395;27;20044;-66
2022/12/03 06:14:35;;;;;;;48.88;18.30;;;;;;;1.63;79.65;101964.47;5059327;27;20404;-66
2022/12/03 06:17:03;;;;;;;51.38;19.70;;;;;;;1.79;79.19;101961.09;5053141;28;20109;-66
2022/12/03 06:19:30;;;;;;;52.03;20.05;;;;;;;1.70;79.13;101948.13;5047873;28;20067;-66
2022/12/03 06:21:57;;;;;;;48.53;18.75;;;;;;;1.77;78.71;101960.25;5032908;28;20057;-66
2022/12/03 06:24:24;;;;;;;56.13;19.88;;;;;;;1.74;78.81;101952.44;5037409;28;20045;-66
2022/12/03 06:26:50;;;;;;;49.15;19.50;;;;;;;1.82;78.18;101953.34;5052170;28;20057;-66
2022/12/03 06:29:17;;;;;;;45.80;19.35;;;;;;;1.95;78.00;101952.56;5032987;28;20041;-66
2022/12/03 06:31:43;;;;;;;47.20;19.70;;;;;;;1.85;78.32;101957.66;5042674;28;20136;-66
2022/12/03 06:34:10;;;;;;;53.97;18.73;;;;;;;1.73;78.36;101955.06;5071767;27;20059;-66
2022/12/03 06:36:36;;;;;;;49.53;18.95;;;;;;;1.82;77.89;101955.94;5070492;27;20055;-67
2022/12/03 06:39:04;;;;;;;45.60;18.90;;;;;;;1.71;77.91;101962.78;5101621;27;20055;-66
2022/12/03 06:41:30;;;;;;;49.40;19.98;;;;;;;1.49;78.60;101971.31;5083586;27;20047;-67
2022/12/03 06:43:57;;;;;;;49.30;19.25;;;;;;;1.82;78.03;101960.25;5050972;27;20048;-67
2022/12/03 06:46:23;;;;;;;49.67;18.50;;;;;;;1.84;77.68;101954.25;5060417;28;20051;-66
2022/12/03 06:48:50;;;;;;;52.15;20.52;;;;;;;1.75;77.84;101948.16;5067691;28;20063;-66
2022/12/03 06:51:16;;;;;;;57.13;18.83;;;;;;;1.88;77.78;101949.94;5052812;28;20044;-67
2022/12/03 06:53:43;;;;;;;45.22;19.15;;;;;;;1.81;77.71;101959.38;5044628;28;20057;-68
2022/12/03 06:56:10;;;;;;;47.67;18.73;;;;;;;1.80;78.24;101952.50;5056257;28;20051;-67
2022/12/03 06:58:37;;;;;;;43.50;19.10;;;;;;;1.90;78.31;101953.38;5066878;28;20040;-68
2022/12/03 07:01:03;;;;;;;49.05;19.63;;;;;;;2.09;77.70;101949.97;5061944;28;20056;-68
2022/12/03 07:03:30;;;;;;;47.75;18.77;;;;;;;1.97;77.72;101952.53;5068071;28;20071;-68
2022/12/03 07:05:56;;;;;;;43.97;18.08;;;;;;;1.98;77.21;101951.69;5042854;28;20049;-69
2022/12/03 07:08:23;;;;;;;51.95;20.30;;;;;;;2.02;77.23;101953.41;5019057;28;20048;-68
2022/12/03 07:10:49;;;;;;;53.20;21.27;;;;;;;2.03;77.11;101941.34;5027853;28;20053;-68
2022/12/03 07:13:17;;;;;;;51.40;20.58;;;;;;;1.81;77.47;101954.19;5028499;28;20485;-68
2022/12/03 07:15:43;;;;;;;49.63;19.98;;;;;;;1.81;77.71;101953.38;5029964;28;20049;-68
2022/12/03 07:18:10;;;;;;;49.20;20.60;;;;;;;1.88;78.07;101950.81;5027966;28;20048;-68
2022/12/03 07:20:36;;;;;;;50.53;20.75;;;;;;;1.89;77.97;101938.72;5028161;28;20045;-68
2022/12/03 07:23:03;;;;;;;46.33;18.58;;;;;;;1.73;77.65;101950.75;5018583;28;20056;-68
2022/12/03 07:25:29;;;;;;;49.53;20.15;;;;;;;1.62;77.90;101952.44;5029092;28;20053;-68
2022/12/03 07:27:56;;;;;;;48.08;19.77;;;;;;;1.83;77.60;101947.31;5031442;28;20049;-68
2022/12/03 07:30:24;;;;;;;51.88;19.02;;;;;;;1.94;77.04;101939.59;5034702;28;20045;-68
2022/12/03 07:32:51;;;;;;;54.10;19.77;;;;;;;2.03;76.89;101933.59;5034987;28;20049;-68
2022/12/03 07:35:17;;;;;;;51.85;19.83;;;;;;;1.93;77.17;101943.03;5028399;28;20045;-67
2022/12/03 07:37:43;;;;;;;48.22;21.13;;;;;;;1.94;77.16;101932.72;5018748;28;20053;-67
2022/12/03 07:40:11;;;;;;;50.25;19.52;;;;;;;1.88;77.46;101942.19;5028170;28;20056;-67
2022/12/03 07:42:38;;;;;;;54.28;20.73;;;;;;;2.03;76.79;101933.59;5028503;28;20040;-67
2022/12/03 07:45:05;;;;;;;46.70;21.15;;;;;;;2.01;76.71;101930.13;5055457;28;20063;-67
2022/12/03 07:47:33;;;;;;;50.08;22.05;;;;;;;2.07;76.50;101932.75;5044826;28;20492;-68
2022/12/03 07:49:59;;;;;;;53.92;21.27;;;;;;;1.94;76.64;101935.28;5035909;28;20044;-66
2022/12/03 07:52:26;;;;;;;52.03;21.25;;;;;;;2.02;76.50;101931.84;5034165;28;20049;-66
2022/12/03 07:54:52;;;;;;;52.10;21.83;;;;;;;2.07;76.28;101937.91;5031578;28;20056;-66
2022/12/03 07:57:19;;;;;;;51.80;20.42;;;;;;;2.11;76.26;101934.44;5032053;28;20051;-66
2022/12/03 07:59:45;;;;;;;45.55;19.65;;;;;;;2.13;76.21;101943.09;5021854;28;20056;-67
2022/12/03 08:02:12;;;;;;;51.88;20.45;;;;;;;1.90;76.90;101925.78;5031599;28;20049;-67
2022/12/03 08:04:39;;;;;;;51.92;20.10;;;;;;;1.66;77.32;101930.91;5032095;28;20049;-67
2022/12/03 08:07:06;;;;;;;57.88;22.70;;;;;;;1.74;77.50;101925.72;5020930;28;20041;-67
2022/12/03 08:09:32;;;;;;;56.05;21.40;;;;;;;1.85;77.07;101924.03;5030888;28;20048;-67
2022/12/03 08:12:02;;;;;;;50.63;20.50;;;;;;;1.79;77.17;101927.50;5031678;28;20099;-67
2022/12/03 08:14:29;;;;;;;53.15;20.95;;;;;;;1.78;77.40;101923.16;5025527;28;20067;-68
2022/12/03 08:16:56;;;;;;;60.67;21.88;;;;;;;1.85;77.28;101918.88;5038806;28;20060;-67
2022/12/03 08:19:22;;;;;;;55.03;22.98;;;;;;;2.08;76.30;101918.91;5031698;28;20057;-68
2022/12/03 08:21:50;;;;;;;44.60;17.42;;;;;;;1.88;76.17;101917.19;5021709;28;20068;-68
2022/12/03 08:24:19;;;;;;;53.08;20.30;;;;;;;1.76;76.56;101924.91;5035134;28;20052;-68
2022/12/03 08:26:47;;;;;;;53.17;21.25;;;;;;;1.55;76.89;101923.97;5031857;28;20451;-68
2022/12/03 08:29:16;;;;;;;48.85;19.27;;;;;;;1.79;76.69;101916.28;5021811;28;20120;-68
2022/12/03 08:31:47;;;;;;;56.00;22.15;;;;;;;1.75;76.50;101923.16;5031752;28;20048;-68
2022/12/03 08:34:17;;;;;;;54.22;21.45;;;;;;;1.85;76.93;101919.72;5023472;28;20413;-68
2022/12/03 08:36:45;;;;;;;61.25;23.38;;;;;;;1.84;76.36;101923.19;5032103;28;20052;-68
2022/12/03 08:39:29;;;;;;;53.58;22.38;;;;;;;1.85;76.30;101929.22;5031624;28;20552;-68
2022/12/03 08:44:43;;;;;;;54.22;21.27;;;;;;;1.64;77.41;101926.56;5051758;28;20060;-67
2022/12/03 08:47:16;;;;;;;57.42;20.42;;;;;;;1.79;76.73;101924.03;5059273;28;20055;-65
2022/12/03 08:49:46;;;;;;;;;;;;;;;1.80;76.59;101925.78;5051206;28;20419;-65
2022/12/03 08:52:15;;;;;;;59.22;22.13;;;;;;;1.77;76.87;101921.47;5040297;28;19920;-65
2022/12/03 08:54:51;;;;;;;47.97;21.30;;;;;;;1.88;76.70;101921.50;5050437;28;20037;-64
2022/12/03 08:57:26;;;;;;;55.63;22.25;;;;;;;1.96;76.58;101918.03;5049480;28;20044;-64
2022/12/03 08:59:56;;;;;;;52.58;21.77;;;;;;;1.94;76.40;101919.78;5049708;28;20045;-64
2022/12/03 09:02:28;;;;;;;50.55;20.92;;;;;;;1.92;76.91;101918.06;5051216;28;20477;-64
2022/12/03 09:04:55;;;;;;;;;;;;;;;2.05;76.22;101921.50;5041067;28;20059;-65
2022/12/03 09:07:21;;;;;;;49.60;20.27;;;;;;;2.01;76.30;101912.88;5050434;28;20027;-65
2022/12/03 09:09:49;;;;;;;55.33;22.35;;;;;;;2.14;76.37;101924.13;5050432;28;20060;-65
2022/12/03 09:12:15;;;;;;;49.20;20.08;;;;;;;2.11;76.36;101918.91;5040412;28;20056;-65
2022/12/03 09:14:42;;;;;;;46.47;19.63;;;;;;;1.92;76.04;101913.72;5049959;28;20045;-64
2022/12/03 09:17:08;;;;;;;49.72;20.38;;;;;;;1.84;76.81;101918.03;5050131;28;20408;-65
2022/12/03 09:19:35;;;;;;;60.45;23.17;;;;;;;2.14;76.40;101918.97;5072062;28;20046;-64
2022/12/03 09:22:01;;;;;;;48.95;21.08;;;;;;;2.01;76.95;101922.38;5050032;28;20040;-65
2022/12/03 09:24:28;;;;;;;55.17;22.23;;;;;;;2.14;76.40;101909.47;5050862;28;20424;-65
2022/12/03 09:26:56;;;;;;;47.80;19.42;;;;;;;1.98;76.32;101907.72;5039926;28;20071;-64
2022/12/03 09:29:22;;;;;;;64.57;22.95;;;;;;;2.20;75.99;101916.38;5049556;28;20044;-64
2022/12/03 09:31:49;;;;;;;59.58;23.52;;;;;;;2.14;76.47;101914.66;5050561;28;20048;-65
2022/12/03 09:34:15;;;;;;;47.42;22.13;;;;;;;2.09;76.06;101908.59;5072067;28;20051;-65
2022/12/03 09:36:42;;;;;;;50.22;21.25;;;;;;;2.05;76.68;101908.56;5049502;28;20050;-65
2022/12/03 09:39:08;;;;;;;53.55;21.70;;;;;;;2.19;76.46;101896.50;5050477;28;20509;-65
2022/12/03 09:41:35;;;;;;;62.05;23.35;;;;;;;2.23;75.99;101899.13;5039690;28;20055;-65
2022/12/03 09:44:03;;;;;;;53.45;21.23;;;;;;;2.18;75.98;101907.75;5049796;28;20447;-65
2022/12/03 09:46:30;;;;;;;49.75;21.50;;;;;;;2.14;76.62;101898.25;5049078;28;20049;-65
2022/12/03 09:48:56;;;;;;;52.20;21.50;;;;;;;2.05;76.86;101890.47;5039296;28;20055;-65
2022/12/03 09:51:25;;;;;;;57.47;21.92;;;;;;;2.16;76.89;101899.09;5049304;28;20048;-66
2022/12/03 09:53:52;;;;;;;55.38;22.33;;;;;;;2.24;76.79;101887.03;5049837;28;20045;-65
2022/12/03 09:56:21;;;;;;;86.15;30.65;;;;;;;2.44;75.84;101882.72;5039547;28;20048;-65
2022/12/03 09:58:49;;;;;;;57.10;23.65;;;;;;;2.55;75.56;101882.75;5048928;28;20049;-65
2022/12/03 10:01:17;;;;;;;61.97;25.67;;;;;;;2.68;75.08;101876.66;5050114;28;20044;-65
2022/12/03 10:03:47;;;;;;;74.90;32.47;;;;;;;2.60;75.12;101875.81;5039341;28;20049;-65
2022/12/03 10:06:17;;;;;;;64.20;28.85;;;;;;;2.46;74.98;101868.06;5049111;28;20127;-65
2022/12/03 10:08:47;;;;;;;61.60;25.05;;;;;;;2.48;75.41;101875.84;5041566;28;20114;-64
2022/12/03 10:11:13;;;;;;;60.08;23.98;;;;;;;2.79;77.67;101870.63;5049757;28;20145;-64
2022/12/03 10:13:40;;;;;;;49.90;22.77;;;;;;;2.74;75.21;101867.16;5049478;28;20055;-65
2022/12/03 10:16:10;;;;;;;52.83;22.27;;;;;;;2.61;77.05;101868.06;5038198;28;20056;-65
2022/12/03 10:18:41;;;;;;;65.40;26.55;;;;;;;2.57;75.88;101866.34;5049209;28;20067;-65
2022/12/03 10:21:16;;;;;;;54.28;24.35;;;;;;;2.61;75.69;101869.78;5048788;28;20080;-65
2022/12/03 10:23:43;;;;;;;49.72;22.10;;;;;;;2.56;74.91;101869.78;5038948;28;20472;-65
2022/12/03 10:26:09;;;;;;;52.72;21.92;;;;;;;2.52;75.19;101872.34;5050141;28;20048;-65
2022/12/03 10:28:37;;;;;;;51.88;22.42;;;;;;;2.43;75.57;101860.31;5049001;28;20055;-65
2022/12/03 10:31:06;;;;;;;51.20;24.13;;;;;;;2.13;76.44;101863.75;5050861;28;20495;-65
2022/12/03 10:33:34;;;;;;;51.55;21.25;;;;;;;2.42;75.83;101863.75;5050579;28;20698;-65
2022/12/03 10:36:17;;;;;;;50.08;22.88;;;;;;;2.45;75.57;101866.34;5047008;28;20048;-65
2022/12/03 10:38:44;;;;;;;;;;;;;;;2.43;75.54;101857.72;5048137;28;20052;-65
2022/12/03 10:41:22;;;;;;;44.13;21.30;;;;;;;2.31;76.13;101871.53;5047327;28;19920;-65
2022/12/03 10:43:48;;;;;;;46.47;21.38;;;;;;;2.40;76.16;101863.75;5062376;28;20468;-65
2022/12/03 10:46:17;;;;;;;43.97;20.30;;;;;;;2.40;75.80;101857.72;5055029;28;20056;-65
2022/12/03 10:48:44;;;;;;;49.70;22.42;;;;;;;2.48;75.66;101845.63;5038075;28;20052;-65
2022/12/03 10:51:19;;;;;;;44.30;21.55;;;;;;;2.60;75.52;101857.69;5051388;28;20563;-65
2022/12/03 10:53:47;;;;;;;52.58;22.27;;;;;;;2.61;75.18;101855.09;5032760;28;20048;-65
2022/12/03 10:56:24;;;;;;;47.42;21.25;;;;;;;2.74;75.39;101846.44;5020414;28;20044;-65
2022/12/03 10:58:51;;;;;;;48.28;22.58;;;;;;;2.85;74.53;101847.28;5028930;28;20045;-65
2022/12/03 11:01:19;;;;;;;45.25;20.55;;;;;;;2.79;74.58;101849.91;5017934;28;20492;-65
2022/12/03 11:03:46;;;;;;;45.38;20.52;;;;;;;2.81;74.01;101855.91;5029184;28;20045;-65
2022/12/03 11:06:16;;;;;;;43.75;18.17;;;;;;;2.65;74.27;101849.06;5028973;28;20045;-65
2022/12/03 11:08:44;;;;;;;48.03;18.92;;;;;;;1.76;76.87;101856.81;5019839;28;20405;-65
2022/12/03 11:11:18;;;;;;;43.95;20.73;;;;;;;1.61;78.26;101856.75;5028842;28;20055;-65
2022/12/03 11:13:51;;;;;;;55.97;20.80;;;;;;;1.83;78.57;101837.84;5029373;28;20463;-65
2022/12/03 11:17:06;;;;;;;48.40;22.25;;;;;;;2.12;77.73;101840.44;5050194;28;20068;-65
2022/12/03 11:19:46;;;;;;;52.30;22.77;;;;;;;2.33;77.11;101841.31;5027661;28;20045;-65
2022/12/03 11:22:28;;;;;;;50.97;22.38;;;;;;;2.34;76.61;101831.81;5037214;28;20041;-65
2022/12/03 11:25:44;;;;;;;56.13;24.65;;;;;;;2.15;77.28;101837.88;5027990;28;20532;-65
2022/12/03 11:28:37;;;;;;;52.35;22.58;;;;;;;2.32;76.46;101843.91;5032041;28;20420;-65
2022/12/03 11:31:10;;;;;;;44.28;19.67;;;;;;;2.24;76.05;101841.34;5031759;28;20072;-65
2022/12/03 11:33:39;;;;;;;49.05;20.40;;;;;;;2.11;76.46;101833.53;5032439;28;20041;-65
2022/12/03 11:36:12;;;;;;;43.20;19.38;;;;;;;2.27;76.15;101835.28;5022121;28;20072;-65
2022/12/03 11:38:54;;;;;;;52.33;21.55;;;;;;;2.43;75.59;101835.28;5032459;28;20048;-65
2022/12/03 11:41:27;;;;;;;48.27;21.67;;;;;;;2.47;75.31;101838.75;5022601;28;20493;-64
2022/12/03 11:44:12;;;;;;;49.38;22.10;;;;;;;2.31;76.27;101832.69;5036549;28;21015;-64
2022/12/03 11:46:43;;;;;;;51.38;22.17;;;;;;;2.15;76.17;101819.75;5028054;28;20512;-65